Time;durP1;ratioP1;P1;durP2;ratioP2;P2;SDS_P1;SDS_P2;PMS_P1;PMS_P2;Temp;Humidity;BMP_temperature;BMP_pressure;BME280_temperature;BME280_humidity;BME280_pressure;Samples;Min_cycle;Max_cycle;Signal;HPM_P1;HPM_P2
2021/01/09 00:02:52;;;;;;;17.53;7.37;;;;;;;;;;10436279;28;20247;-72
2021/01/09 00:07:53;;;;;;;15.67;8.13;;;;;;;;;;10429048;28;20317;-72
2021/01/09 00:12:56;;;;;;;12.90;7.10;;;;;;;;;;10431173;28;20663;-72
2021/01/09 00:17:57;;;;;;;14.57;7.57;;;;;;;;;;10455639;28;20216;-72
2021/01/09 00:22:59;;;;;;;16.10;8.20;;;;;;;;;;10432122;28;20814;-72
2021/01/09 00:28:03;;;;;;;12.40;6.13;;;;;;;;;;10430113;28;20216;-72
2021/01/09 00:33:05;;;;;;;15.57;7.37;;;;;;;;;;10434259;28;20383;-73
2021/01/09 00:38:07;;;;;;;16.20;7.93;;;;;;;;;;10439303;28;20221;-73
2021/01/09 00:43:09;;;;;;;14.83;7.27;;;;;;;;;;10433095;28;20270;-71
2021/01/09 00:48:11;;;;;;;15.47;8.37;;;;;;;;;;10435186;28;20300;-71
2021/01/09 00:53:13;;;;;;;16.30;7.60;;;;;;;;;;10436863;28;20181;-74
2021/01/09 00:58:16;;;;;;;16.97;8.07;;;;;;;;;;10436604;28;20218;-73
2021/01/09 01:03:17;;;;;;;13.17;5.70;;;;;;;;;;10421428;28;20673;-73
2021/01/09 01:08:19;;;;;;;15.67;7.70;;;;;;;;;;10439934;28;20217;-73
2021/01/09 01:13:22;;;;;;;16.60;6.83;;;;;;;;;;10444531;28;20303;-73
2021/01/09 01:18:24;;;;;;;17.10;8.37;;;;;;;;;;10430389;28;20221;-75
2021/01/09 01:23:26;;;;;;;15.27;7.67;;;;;;;;;;10410435;28;20229;-72
2021/01/09 01:28:28;;;;;;;13.23;6.83;;;;;;;;;;10428748;28;20297;-74
2021/01/09 01:33:30;;;;;;;14.17;7.33;;;;;;;;;;10430792;28;20515;-74
2021/01/09 01:38:32;;;;;;;15.60;7.70;;;;;;;;;;10428711;28;20227;-74
2021/01/09 01:43:34;;;;;;;14.67;6.67;;;;;;;;;;10434662;28;20204;-74
2021/01/09 01:48:37;;;;;;;14.97;8.20;;;;;;;;;;10440073;28;20220;-73
2021/01/09 01:53:39;;;;;;;15.83;7.67;;;;;;;;;;10420902;28;20192;-74
2021/01/09 01:58:42;;;;;;;14.53;7.60;;;;;;;;;;10424843;28;20248;-73
2021/01/09 02:03:44;;;;;;;14.87;7.97;;;;;;;;;;10443717;28;20204;-73
2021/01/09 02:08:49;;;;;;;23.47;9.80;;;;;;;;;;10422212;28;20295;-74
2021/01/09 02:13:56;;;;;;;16.50;8.60;;;;;;;;;;10404732;28;20284;-74
2021/01/09 02:18:57;;;;;;;16.17;7.97;;;;;;;;;;10426897;28;20223;-74
2021/01/09 02:24:00;;;;;;;15.63;8.13;;;;;;;;;;10409860;28;20214;-72
2021/01/09 02:29:05;;;;;;;15.63;7.70;;;;;;;;;;10427368;28;20287;-73
2021/01/09 02:34:09;;;;;;;16.50;8.33;;;;;;;;;;10428705;28;20276;-74
2021/01/09 02:39:11;;;;;;;17.03;8.80;;;;;;;;;;10424264;28;20793;-73
2021/01/09 02:44:14;;;;;;;17.67;9.20;;;;;;;;;;10439976;28;20213;-73
2021/01/09 02:49:16;;;;;;;15.83;7.97;;;;;;;;;;10427394;28;20247;-74
2021/01/09 02:54:18;;;;;;;19.70;8.27;;;;;;;;;;10414546;28;20256;-73
2021/01/09 02:59:20;;;;;;;13.00;6.90;;;;;;;;;;10414489;28;20244;-73
2021/01/09 03:04:21;;;;;;;17.10;8.27;;;;;;;;;;10426194;28;20284;-72
2021/01/09 03:09:24;;;;;;;18.13;9.00;;;;;;;;;;10428240;28;20287;-74
2021/01/09 03:14:25;;;;;;;17.70;8.73;;;;;;;;;;10416284;28;20190;-73
2021/01/09 03:19:27;;;;;;;18.80;9.03;;;;;;;;;;10424503;28;20292;-71
2021/01/09 03:24:29;;;;;;;17.00;8.80;;;;;;;;;;10422113;28;20593;-72
2021/01/09 03:29:31;;;;;;;18.40;9.10;;;;;;;;;;10435476;28;20224;-73
2021/01/09 03:34:32;;;;;;;18.90;9.47;;;;;;;;;;10435966;28;20661;-72
2021/01/09 03:39:35;;;;;;;16.87;8.80;;;;;;;;;;10436906;28;20262;-75
2021/01/09 03:44:37;;;;;;;17.10;8.63;;;;;;;;;;10444395;28;20247;-74
2021/01/09 03:49:38;;;;;;;18.60;9.50;;;;;;;;;;10414172;28;20307;-72
2021/01/09 03:54:41;;;;;;;17.90;9.27;;;;;;;;;;10421673;28;20189;-72
2021/01/09 03:59:42;;;;;;;17.87;9.40;;;;;;;;;;10424940;28;20238;-73
2021/01/09 04:04:44;;;;;;;16.97;9.40;;;;;;;;;;10422731;28;20193;-74
2021/01/09 04:09:46;;;;;;;15.30;7.90;;;;;;;;;;10422337;28;20267;-74
2021/01/09 04:14:49;;;;;;;17.00;9.33;;;;;;;;;;10430867;28;20276;-74
2021/01/09 04:19:51;;;;;;;20.87;11.07;;;;;;;;;;10429359;28;20345;-73
2021/01/09 04:24:53;;;;;;;19.27;9.90;;;;;;;;;;10429680;28;20257;-74
2021/01/09 04:29:55;;;;;;;17.63;9.50;;;;;;;;;;10411546;28;20298;-75
2021/01/09 04:34:56;;;;;;;19.50;10.10;;;;;;;;;;10423192;28;20215;-74
2021/01/09 04:40:03;;;;;;;18.20;9.60;;;;;;;;;;10431780;28;20208;-74
2021/01/09 04:45:05;;;;;;;20.47;9.77;;;;;;;;;;10413027;28;20197;-74
2021/01/09 04:50:08;;;;;;;20.00;10.00;;;;;;;;;;10422758;28;21774;-73
2021/01/09 04:55:11;;;;;;;18.80;9.97;;;;;;;;;;10424231;28;20243;-74
2021/01/09 05:00:13;;;;;;;20.27;10.23;;;;;;;;;;10434667;28;20704;-73
2021/01/09 05:05:14;;;;;;;19.73;9.87;;;;;;;;;;10435994;28;20316;-74
2021/01/09 05:10:17;;;;;;;18.80;10.43;;;;;;;;;;10441595;28;20185;-70
2021/01/09 05:15:18;;;;;;;21.03;10.67;;;;;;;;;;10438316;28;20197;-71
2021/01/09 05:20:21;;;;;;;19.80;9.83;;;;;;;;;;10413151;28;20217;-71
2021/01/09 05:25:24;;;;;;;20.97;10.43;;;;;;;;;;10438548;28;20255;-73
2021/01/09 05:30:26;;;;;;;18.13;8.97;;;;;;;;;;10418673;28;20189;-74
2021/01/09 05:35:29;;;;;;;19.00;9.93;;;;;;;;;;10431002;28;20221;-71
2021/01/09 05:40:37;;;;;;;19.43;9.43;;;;;;;;;;10434825;28;20202;-71
2021/01/09 05:45:39;;;;;;;19.60;10.30;;;;;;;;;;10429904;28;20296;-72
2021/01/09 05:50:43;;;;;;;20.00;10.13;;;;;;;;;;10432818;28;20216;-70
2021/01/09 05:55:46;;;;;;;19.57;9.70;;;;;;;;;;10437112;28;20301;-72
2021/01/09 06:00:50;;;;;;;18.30;10.10;;;;;;;;;;10441713;28;20212;-71
2021/01/09 06:05:52;;;;;;;22.30;10.80;;;;;;;;;;10425527;28;20268;-72
2021/01/09 06:10:56;;;;;;;17.83;9.13;;;;;;;;;;10438015;28;20660;-73
2021/01/09 06:16:03;;;;;;;17.60;8.57;;;;;;;;;;10426917;28;20225;-72
2021/01/09 06:21:08;;;;;;;17.30;9.37;;;;;;;;;;10435878;28;20219;-74
2021/01/09 06:26:11;;;;;;;18.67;8.40;;;;;;;;;;10435253;28;20214;-72
2021/01/09 06:31:16;;;;;;;20.07;9.23;;;;;;;;;;10433976;28;20568;-74
2021/01/09 06:36:19;;;;;;;17.13;9.70;;;;;;;;;;10419945;28;20293;-71
2021/01/09 06:41:22;;;;;;;18.23;10.17;;;;;;;;;;10427387;28;20328;-73
2021/01/09 06:46:28;;;;;;;20.23;9.93;;;;;;;;;;10418697;28;20287;-73
2021/01/09 06:51:40;;;;;;;18.47;9.37;;;;;;;;;;10421453;28;20190;-73
2021/01/09 06:56:43;;;;;;;19.67;10.37;;;;;;;;;;10437527;28;20693;-71
2021/01/09 07:01:44;;;;;;;19.30;10.33;;;;;;;;;;10430788;28;20323;-71
2021/01/09 07:06:57;;;;;;;20.20;9.97;;;;;;;;;;10408044;28;20240;-70
2021/01/09 07:12:00;;;;;;;20.90;10.50;;;;;;;;;;10434330;28;20193;-72
2021/01/09 07:17:04;;;;;;;21.07;11.37;;;;;;;;;;10436246;28;20228;-71
2021/01/09 07:22:06;;;;;;;18.77;9.83;;;;;;;;;;10411135;28;20258;-73
2021/01/09 07:27:10;;;;;;;20.07;10.00;;;;;;;;;;10435012;28;20296;-73
2021/01/09 07:32:11;;;;;;;18.87;10.03;;;;;;;;;;10432880;28;20190;-73
2021/01/09 07:37:13;;;;;;;19.70;10.73;;;;;;;;;;10425766;28;20231;-73
2021/01/09 07:42:25;;;;;;;19.70;10.10;;;;;;;;;;10431688;28;20208;-72
2021/01/09 07:47:28;;;;;;;17.27;10.10;;;;;;;;;;10429132;28;20217;-72
2021/01/09 07:52:32;;;;;;;19.53;9.93;;;;;;;;;;10408821;28;20196;-74
2021/01/09 07:57:38;;;;;;;17.00;9.63;;;;;;;;;;10432757;28;20767;-73
2021/01/09 08:02:40;;;;;;;21.13;9.77;;;;;;;;;;10417824;28;20273;-74
2021/01/09 08:07:43;;;;;;;16.77;9.67;;;;;;;;;;10411160;28;20292;-73
2021/01/09 08:12:45;;;;;;;18.03;10.03;;;;;;;;;;10431705;28;20273;-75
2021/01/09 08:17:47;;;;;;;17.43;10.30;;;;;;;;;;10425702;28;20237;-74
2021/01/09 08:22:51;;;;;;;17.33;9.93;;;;;;;;;;10407645;28;20232;-75
2021/01/09 08:27:54;;;;;;;19.50;10.03;;;;;;;;;;10437278;28;20221;-72
2021/01/09 08:33:03;;;;;;;19.50;10.20;;;;;;;;;;10433556;28;20217;-72
2021/01/09 08:38:05;;;;;;;20.13;10.70;;;;;;;;;;10437322;28;20705;-72
2021/01/09 08:43:08;;;;;;;18.63;10.47;;;;;;;;;;10432354;28;20258;-71
2021/01/09 08:48:11;;;;;;;15.53;8.10;;;;;;;;;;10434453;28;20237;-71
2021/01/09 08:53:14;;;;;;;16.97;9.23;;;;;;;;;;10432791;28;20213;-72
2021/01/09 08:58:16;;;;;;;14.33;7.17;;;;;;;;;;10434009;28;20295;-73
2021/01/09 09:03:18;;;;;;;16.47;9.37;;;;;;;;;;10429136;28;20606;-72
2021/01/09 09:08:22;;;;;;;17.53;9.10;;;;;;;;;;10433976;28;20708;-70
2021/01/09 09:13:27;;;;;;;18.27;9.30;;;;;;;;;;10434433;28;20205;-70
2021/01/09 09:18:32;;;;;;;16.83;9.10;;;;;;;;;;10429186;28;20591;-72
2021/01/09 09:23:35;;;;;;;16.87;9.53;;;;;;;;;;10439808;28;20217;-71
2021/01/09 09:28:44;;;;;;;17.77;9.77;;;;;;;;;;10442622;28;20365;-72
2021/01/09 09:33:58;;;;;;;16.30;9.13;;;;;;;;;;10430199;28;20232;-73
2021/01/09 09:39:10;;;;;;;17.20;8.87;;;;;;;;;;10439754;28;20340;-74
2021/01/09 09:44:12;;;;;;;13.87;8.17;;;;;;;;;;10431642;28;20216;-73
2021/01/09 09:49:14;;;;;;;14.60;8.70;;;;;;;;;;10453499;28;20212;-73
2021/01/09 09:54:27;;;;;;;17.30;10.03;;;;;;;;;;10427668;28;20712;-73
2021/01/09 09:59:30;;;;;;;16.23;9.43;;;;;;;;;;10430428;28;20213;-74
2021/01/09 10:04:32;;;;;;;15.57;9.67;;;;;;;;;;10416312;28;20245;-73
2021/01/09 10:09:53;;;;;;;14.40;9.47;;;;;;;;;;10412702;28;20390;-74
2021/01/09 10:14:56;;;;;;;14.33;9.80;;;;;;;;;;10413733;28;20762;-72
2021/01/09 10:19:57;;;;;;;14.60;9.93;;;;;;;;;;10427847;28;20232;-71
2021/01/09 10:24:59;;;;;;;14.70;11.30;;;;;;;;;;10419190;28;20224;-72
2021/01/09 10:30:04;;;;;;;14.27;10.80;;;;;;;;;;10426934;28;20252;-73
2021/01/09 10:35:06;;;;;;;14.13;10.40;;;;;;;;;;10437475;28;20281;-72
2021/01/09 10:40:08;;;;;;;13.60;10.40;;;;;;;;;;10411321;28;20562;-73
2021/01/09 10:45:12;;;;;;;14.23;10.27;;;;;;;;;;10428474;28;20248;-73
2021/01/09 10:50:14;;;;;;;14.33;10.47;;;;;;;;;;10437304;28;20216;-73
2021/01/09 10:55:15;;;;;;;13.53;9.63;;;;;;;;;;10429683;28;20189;-73
2021/01/09 11:00:19;;;;;;;13.30;9.83;;;;;;;;;;10416291;28;20284;-72
2021/01/09 11:05:21;;;;;;;13.73;10.50;;;;;;;;;;10427212;28;20220;-75
2021/01/09 11:10:22;;;;;;;16.30;12.20;;;;;;;;;;10431186;28;20515;-72
2021/01/09 11:15:43;;;;;;;18.60;13.63;;;;;;;;;;10413115;28;20231;-71
2021/01/09 11:20:45;;;;;;;16.07;10.80;;;;;;;;;;10431406;28;20282;-71
2021/01/09 11:25:48;;;;;;;15.30;10.00;;;;;;;;;;10423006;28;20225;-71
2021/01/09 11:30:51;;;;;;;15.27;9.63;;;;;;;;;;10421799;28;20236;-72
2021/01/09 11:35:52;;;;;;;14.20;9.23;;;;;;;;;;10435558;28;20232;-72
2021/01/09 11:40:56;;;;;;;12.53;8.07;;;;;;;;;;10421370;28;20743;-73
2021/01/09 11:45:58;;;;;;;11.97;7.63;;;;;;;;;;10434978;28;20217;-74
2021/01/09 11:51:00;;;;;;;14.17;8.40;;;;;;;;;;10418409;28;20189;-70
2021/01/09 11:56:05;;;;;;;12.77;6.70;;;;;;;;;;10426819;28;20241;-72
2021/01/09 12:01:08;;;;;;;10.63;6.57;;;;;;;;;;10429698;28;20210;-73
2021/01/09 12:06:10;;;;;;;11.23;6.90;;;;;;;;;;10425556;28;20216;-73
2021/01/09 12:11:11;;;;;;;8.33;5.47;;;;;;;;;;10435927;28;20277;-73
2021/01/09 12:16:14;;;;;;;8.50;5.33;;;;;;;;;;10428080;28;20245;-73
2021/01/09 12:21:16;;;;;;;14.83;11.07;;;;;;;;;;10438958;28;20224;-73
2021/01/09 12:26:18;;;;;;;14.87;11.87;;;;;;;;;;10430521;28;20227;-73
2021/01/09 12:31:30;;;;;;;15.50;11.97;;;;;;;;;;10426135;28;20205;-72
2021/01/09 12:36:50;;;;;;;15.83;11.67;;;;;;;;;;10435382;28;20310;-73
2021/01/09 12:41:52;;;;;;;16.27;11.57;;;;;;;;;;10439773;28;20208;-72
2021/01/09 12:46:55;;;;;;;15.47;10.73;;;;;;;;;;10440833;28;20216;-72
2021/01/09 12:51:57;;;;;;;15.23;9.67;;;;;;;;;;10416417;28;20189;-71
2021/01/09 12:56:59;;;;;;;15.63;9.73;;;;;;;;;;10429768;28;20213;-73
2021/01/09 13:02:03;;;;;;;15.30;8.93;;;;;;;;;;10432884;28;20344;-73
2021/01/09 13:07:05;;;;;;;15.33;9.40;;;;;;;;;;10426925;28;20296;-72
2021/01/09 13:12:07;;;;;;;13.30;7.67;;;;;;;;;;10433682;28;20529;-74
2021/01/09 13:17:12;;;;;;;14.87;8.40;;;;;;;;;;10427393;28;20210;-73
2021/01/09 13:22:14;;;;;;;13.30;7.30;;;;;;;;;;10430006;28;20228;-74
2021/01/09 13:27:15;;;;;;;14.03;8.43;;;;;;;;;;10430543;28;20596;-72
2021/01/09 13:32:22;;;;;;;17.63;10.03;;;;;;;;;;10430321;28;20202;-72
2021/01/09 13:37:25;;;;;;;14.23;8.37;;;;;;;;;;10438562;28;20231;-72
2021/01/09 13:42:26;;;;;;;14.87;8.30;;;;;;;;;;10427223;28;20237;-73
2021/01/09 13:47:31;;;;;;;16.57;9.87;;;;;;;;;;10427170;28;20292;-72
2021/01/09 13:52:33;;;;;;;18.40;10.83;;;;;;;;;;10406250;28;20201;-72
2021/01/09 13:57:36;;;;;;;17.47;10.43;;;;;;;;;;10430245;28;20715;-72
2021/01/09 14:02:38;;;;;;;19.33;11.80;;;;;;;;;;10420007;28;20247;-73
2021/01/09 14:07:40;;;;;;;20.07;12.40;;;;;;;;;;10422157;28;20630;-74
2021/01/09 14:12:42;;;;;;;19.10;11.60;;;;;;;;;;10434731;28;20194;-74
2021/01/09 14:17:44;;;;;;;19.97;11.73;;;;;;;;;;10431479;28;20287;-74
2021/01/09 14:22:46;;;;;;;20.53;12.30;;;;;;;;;;10438124;28;20221;-74
2021/01/09 14:27:47;;;;;;;20.30;12.60;;;;;;;;;;10415496;28;20259;-72
2021/01/09 14:32:50;;;;;;;23.27;13.43;;;;;;;;;;10429317;28;20193;-73
2021/01/09 14:37:52;;;;;;;24.60;13.80;;;;;;;;;;10404181;28;20249;-74
2021/01/09 14:42:55;;;;;;;25.70;14.17;;;;;;;;;;10420883;28;20209;-73
2021/01/09 14:47:58;;;;;;;24.70;14.00;;;;;;;;;;10425489;28;20215;-74
2021/01/09 14:53:03;;;;;;;25.13;13.30;;;;;;;;;;10424063;28;20809;-73
2021/01/09 14:58:05;;;;;;;23.23;12.77;;;;;;;;;;10421172;28;20241;-74
2021/01/09 15:03:07;;;;;;;24.43;13.17;;;;;;;;;;10431078;28;20239;-74
2021/01/09 15:08:13;;;;;;;33.17;17.40;;;;;;;;;;10439204;28;20532;-73
2021/01/09 15:13:14;;;;;;;27.23;13.90;;;;;;;;;;10418922;28;20225;-73
2021/01/09 15:23:39;;;;;;;24.73;12.87;;;;;;;;;;10427412;28;20217;-74
2021/01/09 15:28:40;;;;;;;21.27;12.43;;;;;;;;;;10428853;28;20220;-73
2021/01/09 15:33:43;;;;;;;23.33;13.10;;;;;;;;;;10433132;28;20191;-75
2021/01/09 15:38:57;;;;;;;27.03;14.57;;;;;;;;;;10422760;28;20220;-73
2021/01/09 15:43:59;;;;;;;24.80;13.53;;;;;;;;;;10401580;28;20217;-74
2021/01/09 15:49:03;;;;;;;21.50;11.87;;;;;;;;;;10430042;28;20249;-74
2021/01/09 15:54:06;;;;;;;23.43;12.00;;;;;;;;;;10427974;28;20254;-71
2021/01/09 15:59:08;;;;;;;22.60;12.20;;;;;;;;;;10410091;28;20209;-72
2021/01/09 16:04:11;;;;;;;24.23;12.80;;;;;;;;;;10421862;28;20201;-72
2021/01/09 16:09:13;;;;;;;23.93;12.70;;;;;;;;;;10435960;28;20290;-72
2021/01/09 16:14:15;;;;;;;24.50;13.10;;;;;;;;;;10432894;28;20193;-72
2021/01/09 16:19:17;;;;;;;22.37;12.33;;;;;;;;;;10436331;28;20278;-73
2021/01/09 16:24:19;;;;;;;25.10;11.83;;;;;;;;;;10445607;28;20200;-72
2021/01/09 16:29:20;;;;;;;24.97;13.10;;;;;;;;;;10446571;28;21034;-71
2021/01/09 16:34:23;;;;;;;28.50;14.47;;;;;;;;;;10427009;28;20259;-73
2021/01/09 16:39:32;;;;;;;26.90;13.57;;;;;;;;;;10424113;28;20225;-71
2021/01/09 16:44:34;;;;;;;26.87;13.80;;;;;;;;;;10421370;28;20213;-70
2021/01/09 16:49:36;;;;;;;27.17;13.70;;;;;;;;;;10428391;28;20598;-70
2021/01/09 16:54:38;;;;;;;27.40;13.90;;;;;;;;;;10437498;28;20261;-71
2021/01/09 16:59:39;;;;;;;30.57;14.27;;;;;;;;;;10440325;28;20240;-71
2021/01/09 17:04:42;;;;;;;29.60;14.77;;;;;;;;;;10438002;28;20216;-72
2021/01/09 17:09:43;;;;;;;28.83;14.70;;;;;;;;;;10418556;28;20243;-71
2021/01/09 17:14:45;;;;;;;31.50;15.43;;;;;;;;;;10436590;28;20603;-72
2021/01/09 17:19:47;;;;;;;26.80;15.20;;;;;;;;;;10440680;28;20252;-71
2021/01/09 17:24:50;;;;;;;28.97;15.90;;;;;;;;;;10434680;28;20701;-71
2021/01/09 17:29:51;;;;;;;25.80;14.30;;;;;;;;;;10430509;28;20209;-72
2021/01/09 17:34:55;;;;;;;37.07;17.73;;;;;;;;;;10425127;28;20891;-71
2021/01/09 17:39:56;;;;;;;28.30;15.10;;;;;;;;;;10431024;28;20225;-71
2021/01/09 17:44:58;;;;;;;28.73;14.97;;;;;;;;;;10444549;28;20297;-71
2021/01/09 17:50:04;;;;;;;40.47;18.33;;;;;;;;;;10436864;28;20695;-70
2021/01/09 17:55:06;;;;;;;29.53;15.40;;;;;;;;;;10425678;28;20613;-70
2021/01/09 18:00:08;;;;;;;28.03;14.40;;;;;;;;;;10435959;28;20719;-71
2021/01/09 18:05:11;;;;;;;28.43;13.60;;;;;;;;;;10442565;28;20714;-71
2021/01/09 18:10:13;;;;;;;27.10;13.63;;;;;;;;;;10414607;28;20228;-71
2021/01/09 18:15:14;;;;;;;28.90;14.80;;;;;;;;;;10434918;28;20275;-72
2021/01/09 18:20:17;;;;;;;24.53;13.63;;;;;;;;;;10429683;28;20270;-72
2021/01/09 18:25:19;;;;;;;27.10;13.50;;;;;;;;;;10436859;28;20706;-72
2021/01/09 18:30:20;;;;;;;24.90;13.63;;;;;;;;;;10412518;28;20205;-72
2021/01/09 18:35:23;;;;;;;24.97;13.03;;;;;;;;;;10443933;28;20601;-72
2021/01/09 18:40:25;;;;;;;24.03;13.13;;;;;;;;;;10434896;28;20585;-71
2021/01/09 18:45:27;;;;;;;24.07;12.67;;;;;;;;;;10438714;28;20213;-71
2021/01/09 18:50:50;;;;;;;24.00;12.27;;;;;;;;;;10424764;28;20194;-71
2021/01/09 18:56:14;;;;;;;24.40;12.97;;;;;;;;;;10417311;28;20204;-71
2021/01/09 19:01:15;;;;;;;24.00;12.70;;;;;;;;;;10421712;28;20243;-71
2021/01/09 19:06:21;;;;;;;26.23;13.03;;;;;;;;;;10424155;28;20319;-72
2021/01/09 19:11:43;;;;;;;26.23;14.33;;;;;;;;;;10432832;28;20680;-71
2021/01/09 19:16:50;;;;;;;28.20;14.13;;;;;;;;;;10416806;28;20603;-71
2021/01/09 19:21:52;;;;;;;24.83;13.20;;;;;;;;;;10427722;28;20231;-72
2021/01/09 19:26:54;;;;;;;17.57;8.87;;;;;;;;;;10432231;28;20301;-70
2021/01/09 19:31:56;;;;;;;20.63;9.20;;;;;;;;;;10435354;28;20184;-73
2021/01/09 19:36:59;;;;;;;23.73;12.17;;;;;;;;;;10415584;28;20302;-72
2021/01/09 19:42:03;;;;;;;22.47;12.13;;;;;;;;;;10436929;28;20565;-72
2021/01/09 19:47:05;;;;;;;24.50;13.27;;;;;;;;;;10430683;28;20229;-71
2021/01/09 19:52:08;;;;;;;24.20;13.40;;;;;;;;;;10436250;28;20236;-72
2021/01/09 19:57:13;;;;;;;26.77;14.47;;;;;;;;;;10420274;28;20220;-71
2021/01/09 20:02:14;;;;;;;28.40;14.43;;;;;;;;;;10424433;28;20407;-71
2021/01/09 20:07:17;;;;;;;24.33;12.83;;;;;;;;;;10410105;28;20284;-69
2021/01/09 20:12:18;;;;;;;24.40;12.80;;;;;;;;;;10410194;28;20653;-70
2021/01/09 20:17:20;;;;;;;26.23;14.00;;;;;;;;;;10425705;28;20237;-70
2021/01/09 20:22:23;;;;;;;28.57;15.13;;;;;;;;;;10407404;28;20590;-70
2021/01/09 20:27:24;;;;;;;26.43;13.80;;;;;;;;;;10423103;28;20225;-73
2021/01/09 20:32:26;;;;;;;20.47;10.07;;;;;;;;;;10427214;28;20200;-71
2021/01/09 20:37:29;;;;;;;20.77;10.40;;;;;;;;;;10432701;28;20239;-71
2021/01/09 20:42:36;;;;;;;21.70;10.97;;;;;;;;;;10426939;28;20281;-69
2021/01/09 20:47:38;;;;;;;21.93;11.17;;;;;;;;;;10434016;28;20236;-69
2021/01/09 20:52:41;;;;;;;27.57;12.33;;;;;;;;;;10429653;28;20388;-70
2021/01/09 20:57:43;;;;;;;29.23;15.63;;;;;;;;;;10433428;28;20217;-73
2021/01/09 21:02:45;;;;;;;24.83;12.33;;;;;;;;;;10438278;28;20795;-70
2021/01/09 21:07:48;;;;;;;23.73;12.37;;;;;;;;;;10430888;28;20219;-69
2021/01/09 21:12:50;;;;;;;26.83;12.90;;;;;;;;;;10448329;28;20208;-69
2021/01/09 21:17:51;;;;;;;29.73;15.10;;;;;;;;;;10437886;28;20640;-70
2021/01/09 21:22:56;;;;;;;28.47;14.23;;;;;;;;;;10435380;28;20858;-71
2021/01/09 21:28:03;;;;;;;37.37;16.57;;;;;;;;;;10430735;28;20293;-71
2021/01/09 21:33:05;;;;;;;39.70;19.63;;;;;;;;;;10407894;28;20191;-71
2021/01/09 21:38:08;;;;;;;37.33;19.07;;;;;;;;;;10428218;28;20300;-69
2021/01/09 21:43:10;;;;;;;23.77;11.90;;;;;;;;;;10436889;28;20207;-70
2021/01/09 21:48:12;;;;;;;28.70;15.07;;;;;;;;;;10434812;28;20831;-72
2021/01/09 21:53:15;;;;;;;34.07;15.93;;;;;;;;;;10442447;28;20195;-69
2021/01/09 21:58:16;;;;;;;44.13;22.37;;;;;;;;;;10443095;28;20228;-70
2021/01/09 22:03:18;;;;;;;49.47;24.17;;;;;;;;;;10430403;28;20779;-70
2021/01/09 22:08:21;;;;;;;22.43;10.53;;;;;;;;;;10437468;28;20292;-68
2021/01/09 22:13:22;;;;;;;27.57;13.97;;;;;;;;;;10414953;28;20219;-70
2021/01/09 22:18:25;;;;;;;27.37;13.67;;;;;;;;;;10431363;28;20753;-69
2021/01/09 22:23:27;;;;;;;28.90;14.47;;;;;;;;;;10427567;28;20308;-70
2021/01/09 22:28:29;;;;;;;27.93;13.53;;;;;;;;;;10437078;28;20209;-70
2021/01/09 22:33:31;;;;;;;26.07;12.27;;;;;;;;;;10430123;28;20208;-71
2021/01/09 22:38:34;;;;;;;24.37;12.00;;;;;;;;;;10431453;28;20708;-71
2021/01/09 22:43:36;;;;;;;24.57;11.30;;;;;;;;;;10425581;28;20205;-69
2021/01/09 22:48:38;;;;;;;23.13;11.07;;;;;;;;;;10437834;28;20209;-71
2021/01/09 22:53:41;;;;;;;24.07;11.63;;;;;;;;;;10426409;28;20288;-71
2021/01/09 22:58:43;;;;;;;21.97;11.17;;;;;;;;;;10429927;28;20239;-71
2021/01/09 23:03:44;;;;;;;18.00;8.80;;;;;;;;;;10433631;28;20308;-71
2021/01/09 23:08:47;;;;;;;16.87;7.60;;;;;;;;;;10428963;28;20291;-69
2021/01/09 23:13:49;;;;;;;18.13;8.93;;;;;;;;;;10430985;28;20556;-71
2021/01/09 23:18:51;;;;;;;21.30;9.53;;;;;;;;;;10426929;28;20274;-71
2021/01/09 23:23:54;;;;;;;20.33;9.47;;;;;;;;;;10428847;28;20216;-71
2021/01/09 23:28:55;;;;;;;22.73;11.33;;;;;;;;;;10408233;28;20229;-71
2021/01/09 23:33:57;;;;;;;22.17;10.77;;;;;;;;;;10428263;28;20193;-70
2021/01/09 23:38:59;;;;;;;20.00;9.67;;;;;;;;;;10424177;28;20232;-70
2021/01/09 23:44:03;;;;;;;22.87;10.90;;;;;;;;;;10434041;28;20580;-70
2021/01/09 23:49:05;;;;;;;26.93;13.47;;;;;;;;;;10431399;28;20236;-71
2021/01/09 23:54:07;;;;;;;28.97;13.13;;;;;;;;;;10434760;28;20193;-70
2021/01/09 23:59:09;;;;;;;26.80;12.93;;;;;;;;;;10413265;28;20245;-70
